Time;durP1;ratioP1;P1;durP2;ratioP2;P2;SDS_P1;SDS_P2;PMS_P1;PMS_P2;Temp;Humidity;BMP_temperature;BMP_pressure;BME280_temperature;BME280_humidity;BME280_pressure;Samples;Min_cycle;Max_cycle;Signal;HPM_P1;HPM_P2
2021/10/21 00:01:24;;;;;;;5.85;4.28;;;;;;;13.40;100.00;94662.41;5053154;28;24777;-76
2021/10/21 00:03:51;;;;;;;4.55;4.15;;;;;;;13.45;100.00;94648.97;5053081;28;24435;-76
2021/10/21 00:06:18;;;;;;;6.38;4.75;;;;;;;13.46;100.00;94656.66;5052591;28;24998;-76
2021/10/21 00:08:45;;;;;;;5.07;4.47;;;;;;;13.37;100.00;94648.88;5053005;28;24818;-76
2021/10/21 00:11:12;;;;;;;7.15;4.40;;;;;;;13.39;100.00;94649.56;5052698;28;24975;-76
2021/10/21 00:13:38;;;;;;;5.18;4.60;;;;;;;13.41;100.00;94642.41;5052929;28;24469;-77
2021/10/21 00:16:05;;;;;;;6.37;4.77;;;;;;;13.38;100.00;94635.72;5052675;28;24485;-76
2021/10/21 00:18:32;;;;;;;5.82;4.95;;;;;;;13.38;100.00;94625.31;5052480;28;24542;-76
2021/10/21 00:20:58;;;;;;;8.00;5.10;;;;;;;13.29;100.00;94621.78;5052885;28;24813;-76
2021/10/21 00:23:26;;;;;;;5.05;4.57;;;;;;;13.30;100.00;94622.59;5052490;28;24952;-76
2021/10/21 00:25:52;;;;;;;8.88;4.85;;;;;;;13.23;100.00;94622.34;5052409;28;24431;-76
2021/10/21 00:28:19;;;;;;;7.38;4.90;;;;;;;13.18;100.00;94626.31;5052489;28;24524;-76
2021/10/21 00:30:45;;;;;;;6.20;4.70;;;;;;;13.14;100.00;94617.16;5052756;28;24481;-76
2021/10/21 00:33:12;;;;;;;6.00;4.85;;;;;;;13.10;100.00;94618.38;5052245;28;24779;-76
2021/10/21 00:35:38;;;;;;;5.13;4.63;;;;;;;13.01;100.00;94613.03;5052259;28;24426;-76
2021/10/21 00:38:05;;;;;;;5.45;4.40;;;;;;;12.99;100.00;94583.78;5052178;28;24960;-76
2021/10/21 00:40:33;;;;;;;6.45;5.70;;;;;;;13.01;100.00;94579.25;5052303;28;24415;-76
2021/10/21 00:42:59;;;;;;;5.70;5.10;;;;;;;13.12;100.00;94565.28;5052404;28;24423;-76
2021/10/21 00:45:25;;;;;;;7.00;5.22;;;;;;;12.99;100.00;94569.97;5052449;28;24427;-76
2021/10/21 00:47:52;;;;;;;6.20;5.00;;;;;;;12.91;100.00;94567.25;5052272;28;24536;-76
2021/10/21 00:50:18;;;;;;;5.82;5.15;;;;;;;12.91;100.00;94552.50;5052068;28;24964;-77
2021/10/21 00:52:45;;;;;;;5.03;4.47;;;;;;;12.91;100.00;94549.06;5052126;28;24418;-77
2021/10/21 00:55:12;;;;;;;5.43;4.65;;;;;;;12.89;100.00;94543.19;5051970;28;24419;-76
2021/10/21 00:57:40;;;;;;;6.40;5.00;;;;;;;12.87;100.00;94537.28;5052086;28;24862;-76
2021/10/21 01:00:07;;;;;;;5.35;4.85;;;;;;;12.86;100.00;94530.47;5052151;28;24816;-76
2021/10/21 01:02:34;;;;;;;5.20;4.70;;;;;;;12.86;100.00;94531.28;5052056;28;24427;-76
2021/10/21 01:05:00;;;;;;;5.72;4.30;;;;;;;12.89;100.00;94522.41;5053186;28;24411;-76
2021/10/21 01:07:28;;;;;;;9.32;4.65;;;;;;;12.90;100.00;94511.03;5056535;28;24454;-76
2021/10/21 01:09:55;;;;;;;5.07;4.03;;;;;;;12.99;100.00;94510.19;5053887;28;24518;-76
2021/10/21 01:12:22;;;;;;;3.95;3.65;;;;;;;12.98;100.00;94511.97;5051657;28;24836;-76
2021/10/21 01:14:50;;;;;;;5.32;3.90;;;;;;;13.04;100.00;94523.59;5052118;28;24426;-76
2021/10/21 01:17:17;;;;;;;4.07;3.60;;;;;;;13.08;100.00;94510.16;5051455;28;24420;-76
2021/10/21 01:19:44;;;;;;;5.30;3.80;;;;;;;13.10;100.00;94507.44;5051703;28;24427;-76
2021/10/21 01:22:12;;;;;;;4.90;3.38;;;;;;;13.10;100.00;94504.00;5051393;28;24944;-76
2021/10/21 01:24:38;;;;;;;4.28;3.20;;;;;;;13.18;100.00;94486.72;5050977;28;25035;-76
2021/10/21 01:27:05;;;;;;;3.50;2.70;;;;;;;13.20;100.00;94468.38;5051662;28;24427;-78
2021/10/21 01:29:31;;;;;;;2.55;2.35;;;;;;;13.29;100.00;94438.97;5051507;28;24442;-76
2021/10/21 01:31:58;;;;;;;2.78;2.50;;;;;;;13.26;100.00;94441.84;5051303;28;24430;-76
2021/10/21 01:34:24;;;;;;;4.35;2.35;;;;;;;13.28;100.00;94438.16;5051545;28;24430;-76
2021/10/21 01:36:53;;;;;;;2.40;2.03;;;;;;;13.39;100.00;94420.72;5051267;28;24425;-76
2021/10/21 01:39:22;;;;;;;2.78;2.10;;;;;;;13.38;100.00;94408.66;5051014;28;24454;-77
2021/10/21 01:41:48;;;;;;;2.03;1.83;;;;;;;13.41;100.00;94408.38;5051326;28;24982;-76
2021/10/21 01:44:15;;;;;;;3.42;2.05;;;;;;;13.41;100.00;94403.97;5051214;28;24432;-76
2021/10/21 01:46:41;;;;;;;1.67;1.58;;;;;;;13.42;100.00;94404.78;5051033;28;24439;-76
2021/10/21 01:49:08;;;;;;;1.77;1.45;;;;;;;13.43;100.00;94396.03;5051191;28;24836;-76
2021/10/21 01:51:34;;;;;;;2.35;1.60;;;;;;;13.43;100.00;94394.25;5051132;28;24438;-77
2021/10/21 01:54:01;;;;;;;1.85;1.52;;;;;;;13.37;100.00;94388.81;5051226;28;24415;-76
2021/10/21 01:56:28;;;;;;;2.25;1.50;;;;;;;13.37;100.00;94394.84;5050738;28;24828;-76
2021/10/21 01:58:55;;;;;;;2.15;1.65;;;;;;;13.38;100.00;94386.06;5050835;28;24426;-76
2021/10/21 02:01:21;;;;;;;2.03;1.30;;;;;;;13.38;100.00;94373.06;5051123;28;24427;-76
2021/10/21 02:03:48;;;;;;;2.78;1.40;;;;;;;13.37;100.00;94362.81;5050986;28;24493;-76
2021/10/21 02:06:15;;;;;;;4.47;1.42;;;;;;;13.30;100.00;94334.78;5050779;28;24426;-77
2021/10/21 02:08:41;;;;;;;1.27;1.17;;;;;;;13.39;100.00;94329.69;5050809;28;24509;-77
2021/10/21 02:11:08;;;;;;;1.60;1.13;;;;;;;13.36;100.00;94327.38;5050912;28;24473;-77
2021/10/21 02:13:35;;;;;;;1.95;1.30;;;;;;;13.42;100.00;94335.41;5050562;28;24426;-76
2021/10/21 02:16:02;;;;;;;1.70;1.45;;;;;;;13.54;100.00;94347.22;5050203;28;24777;-76
2021/10/21 02:18:28;;;;;;;1.40;1.25;;;;;;;13.61;100.00;94349.22;5050463;28;24484;-76
2021/10/21 02:20:55;;;;;;;3.50;1.47;;;;;;;13.60;100.00;94344.97;5050399;28;24419;-77
2021/10/21 02:23:22;;;;;;;2.33;1.35;;;;;;;13.59;100.00;94341.56;5050837;28;24426;-77
2021/10/21 02:25:48;;;;;;;1.90;1.30;;;;;;;13.69;100.00;94354.50;5050326;28;24422;-76
2021/10/21 02:28:15;;;;;;;1.50;1.40;;;;;;;13.76;100.00;94338.16;5050745;28;24447;-77
2021/10/21 02:30:42;;;;;;;3.28;1.35;;;;;;;13.85;100.00;94305.19;5050652;28;24427;-76
2021/10/21 02:33:09;;;;;;;1.80;1.30;;;;;;;13.94;100.00;94319.91;5050689;28;24423;-76
2021/10/21 02:35:35;;;;;;;3.75;1.75;;;;;;;13.88;100.00;94311.88;5050388;28;24833;-76
2021/10/21 02:38:02;;;;;;;1.70;1.27;;;;;;;13.87;100.00;94310.22;5050278;28;24953;-76
2021/10/21 02:40:28;;;;;;;7.60;1.60;;;;;;;13.85;100.00;94310.38;5050248;28;24427;-76
2021/10/21 02:42:55;;;;;;;2.05;1.48;;;;;;;13.89;100.00;94287.47;5050630;28;24438;-76
2021/10/21 02:45:21;;;;;;;1.33;1.20;;;;;;;13.85;100.00;94299.97;5050350;28;24431;-76
2021/10/21 02:47:49;;;;;;;1.50;1.37;;;;;;;13.77;100.00;94303.34;5050053;28;25013;-76
2021/10/21 02:50:16;;;;;;;1.88;1.50;;;;;;;13.75;100.00;94320.88;5050581;28;24427;-76
2021/10/21 02:52:43;;;;;;;1.63;1.38;;;;;;;13.79;100.00;94311.81;5050429;28;24473;-76
2021/10/21 02:55:10;;;;;;;3.63;1.50;;;;;;;13.64;100.00;94315.91;5050199;28;24430;-76
2021/10/21 02:57:36;;;;;;;1.75;1.27;;;;;;;13.57;100.00;94322.69;5050475;28;24497;-76
2021/10/21 03:00:04;;;;;;;3.70;1.50;;;;;;;13.49;100.00;94317.41;5050382;28;24418;-76
2021/10/21 03:02:31;;;;;;;1.53;1.30;;;;;;;13.43;100.00;94310.22;5050405;28;24809;-76
2021/10/21 03:04:59;;;;;;;2.13;1.50;;;;;;;13.42;100.00;94326.78;5049759;28;24435;-76
2021/10/21 03:07:25;;;;;;;2.00;1.50;;;;;;;13.38;100.00;94347.06;5050318;28;24545;-76
2021/10/21 03:09:51;;;;;;;2.05;1.50;;;;;;;13.45;100.00;94342.09;5050445;28;24447;-76
2021/10/21 03:12:18;;;;;;;1.38;1.02;;;;;;;13.35;100.00;94310.13;5049989;28;24430;-76
2021/10/21 03:14:44;;;;;;;2.90;1.23;;;;;;;13.38;100.00;94333.25;5049840;28;24789;-77
2021/10/21 03:17:12;;;;;;;4.00;1.30;;;;;;;13.41;100.00;94372.78;5049933;28;24687;-76
2021/10/21 03:19:39;;;;;;;1.77;1.05;;;;;;;13.30;100.00;94381.59;5050129;28;24415;-77
2021/10/21 03:22:06;;;;;;;2.53;1.10;;;;;;;13.25;100.00;94386.44;5050241;28;24849;-76
2021/10/21 03:24:33;;;;;;;2.80;0.95;;;;;;;13.34;100.00;94387.31;5049587;28;24431;-76
2021/10/21 03:26:59;;;;;;;1.77;0.82;;;;;;;13.25;100.00;94370.84;5050128;28;24423;-76
2021/10/21 03:29:26;;;;;;;1.90;0.90;;;;;;;13.12;100.00;94383.31;5049973;28;24514;-76
2021/10/21 03:31:52;;;;;;;2.22;0.80;;;;;;;13.24;100.00;94376.19;5050168;28;24423;-77
2021/10/21 03:34:19;;;;;;;1.77;0.70;;;;;;;13.22;100.00;94386.69;5053116;28;24432;-76
2021/10/21 03:36:46;;;;;;;1.33;0.80;;;;;;;13.25;100.00;94383.00;5053491;28;24961;-76
2021/10/21 03:39:13;;;;;;;1.50;0.65;;;;;;;13.19;100.00;94391.34;5053278;28;24490;-76
2021/10/21 03:41:40;;;;;;;2.00;0.90;;;;;;;13.30;100.00;94406.78;5053485;28;24431;-76
2021/10/21 03:44:07;;;;;;;1.70;0.63;;;;;;;13.31;100.00;94392.81;5053598;28;24422;-76
2021/10/21 03:46:33;;;;;;;2.08;0.73;;;;;;;13.28;98.43;94367.94;5053105;28;24420;-76
2021/10/21 03:49:00;;;;;;;1.65;0.70;;;;;;;13.22;96.78;94385.88;5053449;28;24905;-76
2021/10/21 03:51:26;;;;;;;0.95;0.57;;;;;;;13.13;100.00;94394.56;5053415;28;24469;-77
2021/10/21 03:53:52;;;;;;;5.63;0.90;;;;;;;13.07;100.00;94403.75;5053400;28;24461;-76
2021/10/21 03:56:20;;;;;;;3.70;0.80;;;;;;;12.86;100.00;94435.16;5053134;28;24426;-76
2021/10/21 03:58:47;;;;;;;1.05;0.50;;;;;;;12.94;100.00;94434.44;5053270;28;24424;-76
2021/10/21 04:01:13;;;;;;;1.10;0.52;;;;;;;12.87;96.99;94456.75;5053282;28;24426;-77
2021/10/21 04:03:40;;;;;;;3.47;0.50;;;;;;;12.77;97.45;94456.78;5053209;28;24477;-76
2021/10/21 04:06:06;;;;;;;2.67;0.70;;;;;;;12.70;96.90;94453.13;5055870;28;24481;-76
2021/10/21 04:08:33;;;;;;;1.13;0.63;;;;;;;12.61;94.73;94462.59;5058444;28;24451;-76
2021/10/21 04:10:59;;;;;;;1.38;0.65;;;;;;;12.47;98.66;94470.81;5056201;28;24435;-76
2021/10/21 04:13:27;;;;;;;3.28;0.75;;;;;;;12.37;100.00;94477.78;5053374;28;24431;-76
2021/10/21 04:15:53;;;;;;;1.63;0.70;;;;;;;12.26;97.93;94509.91;5053055;28;24420;-76
2021/10/21 04:18:20;;;;;;;2.63;0.70;;;;;;;12.22;96.06;94495.56;5052751;28;24837;-76
2021/10/21 04:20:48;;;;;;;2.90;0.70;;;;;;;12.27;95.51;94490.78;5052961;28;24476;-76
2021/10/21 04:23:15;;;;;;;3.38;1.02;;;;;;;12.11;96.95;94501.72;5052809;28;24454;-76
2021/10/21 04:25:41;;;;;;;1.90;0.68;;;;;;;12.09;93.92;94501.03;5052624;28;24458;-76
2021/10/21 04:28:08;;;;;;;3.30;0.75;;;;;;;11.96;97.10;94521.25;5052439;28;24434;-76
2021/10/21 04:30:35;;;;;;;1.92;0.70;;;;;;;11.82;99.02;94533.59;5052753;28;24465;-76
2021/10/21 04:33:02;;;;;;;1.75;0.60;;;;;;;11.84;98.69;94542.13;5052743;28;24489;-76
2021/10/21 04:35:28;;;;;;;1.90;0.60;;;;;;;11.96;95.60;94558.38;5052498;28;24419;-76
2021/10/21 04:37:55;;;;;;;3.22;0.77;;;;;;;11.99;97.57;94578.88;5052422;28;24477;-76
2021/10/21 04:40:21;;;;;;;2.10;0.90;;;;;;;11.89;97.11;94570.25;5052387;28;24441;-76
2021/10/21 04:42:48;;;;;;;2.38;0.80;;;;;;;11.84;96.18;94573.25;5052395;28;24431;-76
2021/10/21 04:45:14;;;;;;;5.40;1.00;;;;;;;11.82;90.55;94575.09;5052091;28;24821;-76
2021/10/21 04:47:42;;;;;;;5.03;1.25;;;;;;;11.74;92.55;94597.47;5051990;28;24977;-77
2021/10/21 04:50:09;;;;;;;2.45;0.90;;;;;;;11.77;90.40;94592.84;5052287;28;24446;-77
2021/10/21 04:52:37;;;;;;;5.18;1.10;;;;;;;11.60;92.01;94598.66;5052267;28;24426;-77
2021/10/21 04:55:06;;;;;;;3.00;1.15;;;;;;;11.54;89.80;94605.19;5051957;28;24856;-76
2021/10/21 04:57:32;;;;;;;4.72;1.58;;;;;;;11.51;88.28;94591.69;5051861;28;24435;-76
2021/10/21 04:59:58;;;;;;;3.17;1.33;;;;;;;11.45;89.76;94602.56;5052227;28;24465;-76
2021/10/21 05:02:25;;;;;;;7.35;1.63;;;;;;;11.45;88.40;94608.56;5052076;28;24443;-76
2021/10/21 05:04:53;;;;;;;3.83;1.10;;;;;;;11.31;90.46;94620.13;5052017;28;24419;-76
2021/10/21 05:07:19;;;;;;;2.92;0.95;;;;;;;11.33;88.58;94622.56;5051577;28;25329;-76
2021/10/21 05:09:46;;;;;;;7.38;1.30;;;;;;;11.30;88.41;94631.41;5051901;28;24497;-76
2021/10/21 05:12:12;;;;;;;4.97;1.58;;;;;;;11.18;88.05;94616.06;5051842;28;24427;-76
2021/10/21 05:14:38;;;;;;;7.07;1.70;;;;;;;11.14;87.95;94633.66;5051337;28;24475;-76
2021/10/21 05:17:05;;;;;;;5.05;1.55;;;;;;;11.07;89.41;94630.75;5051273;28;24832;-76
2021/10/21 05:19:31;;;;;;;7.35;1.70;;;;;;;11.05;88.09;94635.25;5051439;28;24423;-76
2021/10/21 05:21:59;;;;;;;11.52;1.70;;;;;;;11.06;87.47;94647.25;5051516;28;24424;-76
2021/10/21 05:24:25;;;;;;;4.78;1.58;;;;;;;11.11;85.55;94639.09;5051553;28;24419;-76
2021/10/21 05:26:52;;;;;;;4.78;1.48;;;;;;;11.01;87.46;94652.00;5051740;28;24426;-76
2021/10/21 05:29:19;;;;;;;5.72;1.48;;;;;;;11.05;85.38;94644.75;5051471;28;24443;-76
2021/10/21 05:31:45;;;;;;;10.73;1.90;;;;;;;10.91;85.09;94643.31;5051500;28;24419;-76
2021/10/21 05:34:11;;;;;;;6.00;1.95;;;;;;;11.04;85.65;94649.13;5051465;28;24423;-77
2021/10/21 05:36:38;;;;;;;7.38;2.17;;;;;;;11.03;85.17;94657.03;5049521;28;24446;-77
2021/10/21 05:39:06;;;;;;;11.10;1.90;;;;;;;11.00;84.45;94655.50;5047726;28;24435;-78
2021/10/21 05:41:33;;;;;;;5.07;1.67;;;;;;;11.01;85.50;94662.34;5051446;28;24421;-78
2021/10/21 05:44:00;;;;;;;8.50;1.83;;;;;;;10.98;86.41;94669.56;5051410;28;25003;-78
2021/10/21 05:46:27;;;;;;;5.50;1.80;;;;;;;11.02;84.42;94660.59;5051052;28;24407;-78
2021/10/21 05:48:53;;;;;;;5.70;1.45;;;;;;;11.10;84.75;94681.50;5049718;28;24455;-78
2021/10/21 05:51:20;;;;;;;5.72;1.75;;;;;;;11.05;84.23;94684.47;5051100;28;24794;-77
2021/10/21 05:53:48;;;;;;;7.00;1.95;;;;;;;11.02;84.46;94702.84;5050996;28;24427;-78
2021/10/21 05:56:16;;;;;;;5.57;1.90;;;;;;;11.04;82.15;94692.34;5049908;28;25075;-77
2021/10/21 05:58:42;;;;;;;6.82;2.00;;;;;;;11.06;82.65;94680.09;5050989;28;20763;-77
2021/10/21 06:01:09;;;;;;;7.75;2.00;;;;;;;11.01;81.06;94679.66;5051148;28;24439;-78
2021/10/21 06:03:38;;;;;;;9.73;2.20;;;;;;;11.03;82.04;94701.09;5050642;28;24499;-82
2021/10/21 06:06:04;;;;;;;6.30;1.63;;;;;;;11.15;79.67;94692.28;5050508;28;24429;-77
2021/10/21 06:08:31;;;;;;;6.75;2.00;;;;;;;11.11;79.59;94709.88;5030651;28;24794;-77
2021/10/21 06:10:57;;;;;;;8.63;2.28;;;;;;;11.04;79.77;94688.00;5030813;28;24757;-77
2021/10/21 06:13:25;;;;;;;5.68;1.83;;;;;;;11.05;79.38;94705.19;5030280;28;24428;-77
2021/10/21 06:15:52;;;;;;;5.65;1.67;;;;;;;10.98;79.71;94713.59;5030399;28;24771;-77
2021/10/21 06:18:18;;;;;;;5.32;1.67;;;;;;;11.11;76.72;94701.28;5030218;28;24432;-77
2021/10/21 06:20:45;;;;;;;10.55;1.67;;;;;;;11.18;76.57;94696.41;5030530;28;24961;-77
2021/10/21 06:23:11;;;;;;;10.07;2.13;;;;;;;11.11;76.55;94704.69;5030627;28;24522;-77
2021/10/21 06:25:38;;;;;;;6.63;1.70;;;;;;;11.13;74.59;94691.63;5030527;28;24482;-77
2021/10/21 06:28:05;;;;;;;12.60;2.03;;;;;;;11.12;74.33;94690.81;5030143;28;24988;-77
2021/10/21 06:30:33;;;;;;;8.73;1.88;;;;;;;11.11;75.29;94709.88;5030522;28;24447;-77
2021/10/21 06:32:59;;;;;;;5.57;1.50;;;;;;;11.14;75.20;94704.44;5030584;28;24945;-77
2021/10/21 06:35:25;;;;;;;9.85;1.88;;;;;;;11.06;75.44;94701.66;5030519;28;24418;-78
2021/10/21 06:37:52;;;;;;;7.72;1.80;;;;;;;11.02;75.15;94717.59;5049207;28;24434;-78
2021/10/21 06:40:19;;;;;;;6.97;1.85;;;;;;;11.13;74.07;94699.38;5056343;28;24424;-78
2021/10/21 06:42:45;;;;;;;9.65;1.90;;;;;;;11.10;75.33;94722.97;5059585;28;24419;-78
2021/10/21 06:45:12;;;;;;;4.97;1.43;;;;;;;11.09;75.27;94742.88;5057444;28;24431;-78
2021/10/21 06:47:40;;;;;;;7.60;1.77;;;;;;;11.10;75.60;94760.06;5054204;28;24992;-76
2021/10/21 06:50:09;;;;;;;7.07;1.70;;;;;;;11.11;74.92;94760.88;5051376;28;24447;-78
2021/10/21 06:52:36;;;;;;;5.53;1.50;;;;;;;11.09;74.98;94763.59;5050179;28;24427;-77
2021/10/21 06:55:03;;;;;;;6.32;1.40;;;;;;;11.14;74.26;94777.00;5049840;28;24718;-77
2021/10/21 06:57:29;;;;;;;5.70;1.45;;;;;;;11.21;73.18;94766.16;5050163;28;24434;-77
2021/10/21 06:59:56;;;;;;;4.05;1.27;;;;;;;11.24;72.37;94769.31;5049484;28;24426;-77
2021/10/21 07:02:22;;;;;;;5.80;1.33;;;;;;;11.27;71.51;94766.47;5050419;28;24419;-77
2021/10/21 07:04:50;;;;;;;4.60;1.10;;;;;;;11.31;70.14;94767.88;5049562;28;24434;-78
2021/10/21 07:07:17;;;;;;;7.70;1.40;;;;;;;11.34;69.65;94779.72;5050171;28;24435;-77
2021/10/21 07:09:43;;;;;;;8.05;1.02;;;;;;;11.49;69.55;94790.63;5055493;28;24450;-76
2021/10/21 07:12:09;;;;;;;4.90;1.30;;;;;;;11.37;69.93;94811.41;5059655;28;24415;-77
2021/10/21 07:14:36;;;;;;;6.25;0.93;;;;;;;11.50;69.03;94844.16;5059564;28;24492;-78
2021/10/21 07:17:03;;;;;;;5.23;1.03;;;;;;;11.49;69.07;94853.66;5058583;28;24794;-78
2021/10/21 07:19:29;;;;;;;4.03;0.83;;;;;;;11.50;68.83;94839.78;5058830;28;24426;-78
2021/10/21 07:21:57;;;;;;;4.78;0.90;;;;;;;11.32;69.38;94874.97;5058363;28;24431;-75
2021/10/21 07:24:23;;;;;;;4.50;0.87;;;;;;;11.29;70.41;94841.50;5056464;28;24976;-77
2021/10/21 07:26:51;;;;;;;4.03;0.80;;;;;;;11.26;70.24;94903.94;5055111;28;24436;-77
2021/10/21 07:29:18;;;;;;;6.90;1.00;;;;;;;11.26;70.33;94909.13;5037013;28;20818;-76
2021/10/21 07:31:44;;;;;;;4.53;0.77;;;;;;;11.28;70.74;94902.06;5037158;28;24436;-77
2021/10/21 07:34:11;;;;;;;5.28;1.20;;;;;;;11.17;71.13;94917.66;5038028;28;24474;-76
2021/10/21 07:36:37;;;;;;;5.88;0.98;;;;;;;11.20;70.56;94917.38;5040296;28;24481;-77
2021/10/21 07:39:06;;;;;;;5.10;1.15;;;;;;;11.24;70.29;94888.53;5055669;28;24435;-77
2021/10/21 07:41:32;;;;;;;13.30;1.27;;;;;;;11.12;71.72;94943.91;5055388;28;24459;-77
2021/10/21 07:43:59;;;;;;;9.23;1.10;;;;;;;11.16;71.02;94937.56;5055053;28;24469;-77
2021/10/21 07:46:25;;;;;;;4.10;1.15;;;;;;;11.20;71.48;94927.75;5056297;28;24492;-77
2021/10/21 07:48:51;;;;;;;4.72;1.10;;;;;;;11.25;71.84;94954.16;5056940;28;20763;-77
2021/10/21 07:51:19;;;;;;;2.38;0.90;;;;;;;11.46;71.27;94972.38;5055861;28;24447;-77
2021/10/21 07:53:45;;;;;;;5.30;1.30;;;;;;;11.46;70.04;94960.25;5055254;28;20865;-77
2021/10/21 07:56:13;;;;;;;4.65;1.20;;;;;;;11.45;70.51;94970.72;5054248;28;24438;-77
2021/10/21 07:58:40;;;;;;;4.82;1.20;;;;;;;11.57;70.26;94954.22;5053960;28;24987;-77
2021/10/21 08:01:06;;;;;;;5.32;1.02;;;;;;;11.46;69.91;94962.00;5054754;28;24786;-76
2021/10/21 08:03:33;;;;;;;3.17;1.13;;;;;;;11.42;69.13;95018.47;5054045;28;24813;-77
2021/10/21 08:06:02;;;;;;;7.05;0.98;;;;;;;11.40;70.20;95004.78;5054494;28;24426;-77
2021/10/21 08:08:30;;;;;;;5.30;1.00;;;;;;;11.34;70.18;94998.31;5053283;28;25062;-76
2021/10/21 08:10:57;;;;;;;6.43;0.90;;;;;;;11.15;71.26;95026.59;5053892;28;24450;-77
2021/10/21 08:13:24;;;;;;;4.20;0.88;;;;;;;11.10;70.77;94974.31;5054573;28;24453;-75
2021/10/21 08:15:51;;;;;;;2.67;0.80;;;;;;;11.12;71.86;95017.31;5053277;28;20876;-76
2021/10/21 08:18:18;;;;;;;4.50;1.00;;;;;;;11.17;71.96;95027.31;5052532;28;24426;-76
2021/10/21 08:20:45;;;;;;;1.77;0.70;;;;;;;11.25;72.18;95030.16;5053777;28;24431;-78
2021/10/21 08:23:11;;;;;;;8.38;1.25;;;;;;;11.19;73.48;95058.28;5054769;28;24874;-77
2021/10/21 08:25:39;;;;;;;6.30;1.35;;;;;;;10.91;74.29;95060.41;5052707;28;24786;-76
2021/10/21 08:28:06;;;;;;;4.50;0.98;;;;;;;10.82;75.88;95074.03;5052820;28;24987;-78
2021/10/21 08:30:37;;;;;;;2.03;0.85;;;;;;;11.11;76.70;95101.16;5054510;28;24443;-78
2021/10/21 08:33:04;;;;;;;5.88;0.90;;;;;;;11.00;79.22;95105.50;5053700;28;20770;-77
2021/10/21 08:35:32;;;;;;;3.80;0.65;;;;;;;10.63;86.92;95134.13;5051835;28;20824;-77
2021/10/21 08:38:00;;;;;;;2.60;0.55;;;;;;;10.14;89.41;95151.41;5053636;28;20808;-78
2021/10/21 08:40:27;;;;;;;3.00;0.77;;;;;;;9.82;91.43;95171.75;5051427;28;20775;-78
2021/10/21 08:42:53;;;;;;;4.18;0.65;;;;;;;9.92;93.82;95165.03;5048300;28;21331;-76
2021/10/21 08:45:20;;;;;;;3.95;0.63;;;;;;;9.80;96.55;95165.06;5047066;28;20774;-77
2021/10/21 08:47:50;;;;;;;2.30;0.60;;;;;;;9.88;97.42;95170.53;5053019;28;24589;-77
2021/10/21 08:50:19;;;;;;;2.53;0.90;;;;;;;9.79;97.49;95192.69;5053194;28;20802;-77
2021/10/21 08:52:46;;;;;;;4.50;0.70;;;;;;;9.41;100.00;95165.09;5052555;28;24454;-77
2021/10/21 08:55:14;;;;;;;2.33;0.50;;;;;;;9.45;100.00;95182.06;5052553;28;20820;-77
2021/10/21 08:57:41;;;;;;;1.83;0.52;;;;;;;9.39;97.57;95172.13;5052328;28;24431;-78
2021/10/21 09:00:09;;;;;;;1.00;0.40;;;;;;;9.61;96.29;95178.44;5053207;28;24525;-76
2021/10/21 09:02:44;;;;;;;0.38;0.20;;;;;;;9.79;92.15;95197.84;5053086;28;24510;-76
2021/10/21 09:05:17;;;;;;;0.60;0.22;;;;;;;9.80;91.55;95190.91;5052210;28;24509;-77
2021/10/21 09:07:57;;;;;;;2.17;0.50;;;;;;;9.93;93.16;95194.28;5052579;28;21170;-76
2021/10/21 09:10:24;;;;;;;0.52;0.30;;;;;;;9.81;92.49;95206.31;5051970;28;21020;-77
2021/10/21 09:12:50;;;;;;;1.60;0.40;;;;;;;9.90;92.71;95210.88;5053899;28;21133;-76
2021/10/21 09:15:19;;;;;;;1.37;0.30;;;;;;;10.01;92.92;95224.81;5052312;28;21188;-75
2021/10/21 09:17:47;;;;;;;2.78;0.30;;;;;;;10.03;93.37;95241.88;5051775;28;20819;-78
2021/10/21 09:20:37;;;;;;;0.82;0.30;;;;;;;9.97;94.12;95241.47;5053186;28;20801;-77
2021/10/21 09:23:06;;;;;;;1.10;0.32;;;;;;;9.95;96.24;95267.47;5052411;28;20693;-78
2021/10/21 09:25:36;;;;;;;1.75;0.40;;;;;;;9.61;93.58;95258.56;5052048;28;22514;-76
2021/10/21 09:28:17;;;;;;;2.38;0.40;;;;;;;9.40;93.98;95297.84;5052204;28;20811;-76
2021/10/21 09:30:51;;;;;;;2.30;0.30;;;;;;;9.48;94.15;95306.84;5050570;28;20707;-75
2021/10/21 09:33:18;;;;;;;0.80;0.30;;;;;;;9.69;88.65;95305.44;5050915;28;21053;-75
2021/10/21 09:35:56;;;;;;;1.50;0.43;;;;;;;9.80;88.11;95296.97;5050934;28;21133;-75
2021/10/21 09:38:28;;;;;;;1.60;0.50;;;;;;;9.89;85.54;95293.72;5032508;28;20790;-75
2021/10/21 09:40:55;;;;;;;2.03;0.45;;;;;;;9.74;81.96;95305.13;5031204;28;20784;-74
2021/10/21 09:43:30;;;;;;;1.73;0.60;;;;;;;9.82;83.92;95320.94;5031386;28;21127;-75
2021/10/21 09:45:56;;;;;;;1.80;0.60;;;;;;;9.90;83.35;95321.25;5030654;28;20837;-75
2021/10/21 09:48:22;;;;;;;1.75;0.65;;;;;;;9.84;82.13;95325.09;5030936;28;20772;-75
2021/10/21 09:50:49;;;;;;;1.95;0.40;;;;;;;10.11;81.08;95339.69;5049376;28;21145;-75
2021/10/21 09:53:19;;;;;;;1.73;0.50;;;;;;;10.26;77.84;95340.44;5050750;28;21339;-75
2021/10/21 09:55:47;;;;;;;2.08;0.80;;;;;;;10.35;76.91;95338.06;5050559;28;20872;-75
2021/10/21 09:58:17;;;;;;;6.53;0.90;;;;;;;10.19;78.17;95335.63;5050760;28;20854;-75
2021/10/21 10:00:44;;;;;;;3.35;0.82;;;;;;;10.56;76.48;95330.53;5050529;28;20800;-75
2021/10/21 10:03:15;;;;;;;4.20;0.52;;;;;;;10.28;76.03;95325.63;5050753;28;24427;-75
2021/10/21 10:05:43;;;;;;;1.20;0.40;;;;;;;10.41;77.25;95337.59;5049996;28;20823;-76
2021/10/21 10:08:10;;;;;;;1.40;0.50;;;;;;;10.63;75.58;95325.75;5050591;28;24833;-76
2021/10/21 10:10:39;;;;;;;7.15;0.82;;;;;;;10.84;75.46;95332.03;5050645;28;20786;-75
2021/10/21 10:13:06;;;;;;;2.60;0.50;;;;;;;10.92;76.52;95335.84;5050595;28;21065;-75
2021/10/21 10:15:34;;;;;;;1.83;0.63;;;;;;;10.94;75.91;95331.38;5052536;28;24423;-76
2021/10/21 10:18:01;;;;;;;3.08;0.75;;;;;;;11.09;75.65;95336.31;5054812;28;24518;-76
2021/10/21 10:20:28;;;;;;;1.20;0.55;;;;;;;10.85;73.57;95336.28;5053327;28;24427;-76
2021/10/21 10:22:56;;;;;;;3.50;0.60;;;;;;;10.82;76.13;95341.66;5051112;28;24431;-76
2021/10/21 10:25:23;;;;;;;1.73;0.63;;;;;;;11.00;75.14;95336.13;5050356;28;24422;-76
2021/10/21 10:27:57;;;;;;;1.75;0.77;;;;;;;11.16;72.65;95339.28;5050959;28;24419;-76
2021/10/21 10:30:44;;;;;;;2.42;0.63;;;;;;;11.36;72.77;95328.28;5050499;28;24988;-76
2021/10/21 10:33:12;;;;;;;2.80;0.88;;;;;;;11.52;72.96;95334.94;5050391;28;25007;-76
2021/10/21 10:35:39;;;;;;;2.60;0.90;;;;;;;11.43;72.77;95340.81;5050134;28;24473;-77
2021/10/21 10:38:07;;;;;;;5.25;1.05;;;;;;;11.13;73.06;95344.69;5049676;28;25056;-75
2021/10/21 10:40:48;;;;;;;2.55;0.73;;;;;;;11.21;73.85;95354.50;5050396;28;25024;-76
2021/10/21 10:43:18;;;;;;;4.78;0.77;;;;;;;11.43;72.46;95361.56;5053596;28;24418;-77
2021/10/21 10:45:52;;;;;;;4.43;1.20;;;;;;;11.30;71.73;95357.25;5054318;28;24411;-76
2021/10/21 10:49:01;;;;;;;4.70;0.95;;;;;;;11.47;72.27;95360.41;5054552;28;24529;-76
2021/10/21 10:51:57;;;;;;;9.00;1.20;;;;;;;11.27;71.33;95367.84;5054180;28;24443;-77
2021/10/21 10:54:56;;;;;;;2.70;0.93;;;;;;;11.02;72.04;95380.91;5054165;28;24528;-75
2021/10/21 10:57:51;;;;;;;2.95;0.82;;;;;;;11.46;71.81;95374.28;5043181;28;24439;-75
2021/10/21 11:00:44;;;;;;;4.30;0.90;;;;;;;11.39;71.98;95384.28;5034637;28;24431;-76
2021/10/21 11:03:11;;;;;;;2.25;1.05;;;;;;;11.48;72.28;95393.97;5034859;28;24419;-76
2021/10/21 11:05:52;;;;;;;2.55;0.90;;;;;;;11.30;69.89;95384.94;5053698;28;24971;-76
2021/10/21 11:08:19;;;;;;;3.10;1.05;;;;;;;11.27;68.59;95388.59;5035742;28;24432;-76
2021/10/21 11:10:46;;;;;;;5.27;1.10;;;;;;;11.38;69.37;95388.66;5034105;28;24553;-76
2021/10/21 11:13:22;;;;;;;4.90;1.15;;;;;;;11.29;68.92;95399.66;5033719;28;24974;-75
2021/10/21 11:15:51;;;;;;;3.50;1.10;;;;;;;11.33;67.38;95387.31;5033757;28;24511;-76
2021/10/21 11:18:26;;;;;;;3.17;0.95;;;;;;;11.38;68.08;95395.56;5033935;28;24856;-76
2021/10/21 11:20:55;;;;;;;3.13;1.20;;;;;;;11.33;67.48;95403.69;5034038;28;24439;-76
2021/10/21 11:23:48;;;;;;;5.18;0.93;;;;;;;11.35;68.86;95408.78;5034078;28;24419;-76
2021/10/21 11:26:23;;;;;;;3.10;0.88;;;;;;;11.49;67.50;95408.59;5009191;28;24479;-76
2021/10/21 11:28:52;;;;;;;2.42;0.95;;;;;;;11.55;67.40;95402.97;5033765;28;24510;-76
2021/10/21 11:31:20;;;;;;;4.28;1.00;;;;;;;11.52;68.01;95413.56;5033936;28;24846;-75
2021/10/21 11:33:48;;;;;;;2.95;1.17;;;;;;;11.71;66.91;95418.25;5033639;28;24431;-76
2021/10/21 11:36:15;;;;;;;3.13;1.17;;;;;;;11.86;66.93;95412.00;5033733;28;24447;-75